sensor_id;sensor_type;location;lat;lon;timestamp;P1;durP1;ratioP1;P2;durP2;ratioP2
17955;SDS011;27666;51.498;11.966;2024-01-06T14:39:50;36.10;;;16.40;;
17955;SDS011;27666;51.498;11.966;2024-01-06T14:42:36;39.07;;;18.07;;
17955;SDS011;27666;51.498;11.966;2024-01-06T14:45:23;47.33;;;17.47;;
17955;SDS011;27666;51.498;11.966;2024-01-06T14:48:10;45.53;;;18.53;;
17955;SDS011;27666;51.498;11.966;2024-01-06T14:50:56;46.43;;;19.57;;
17955;SDS011;27666;51.498;11.966;2024-01-06T14:53:43;48.17;;;19.40;;
17955;SDS011;27666;51.498;11.966;2024-01-06T14:56:31;47.43;;;20.23;;
17955;SDS011;27666;51.498;11.966;2024-01-06T14:59:18;52.43;;;19.60;;
17955;SDS011;27666;51.498;11.966;2024-01-06T15:02:05;47.10;;;19.17;;
17955;SDS011;27666;51.498;11.966;2024-01-06T15:04:52;52.40;;;18.57;;
17955;SDS011;27666;51.498;11.966;2024-01-06T15:07:40;48.50;;;19.10;;
17955;SDS011;27666;51.498;11.966;2024-01-06T15:10:27;48.00;;;19.93;;
17955;SDS011;27666;51.498;11.966;2024-01-06T15:13:15;47.13;;;18.57;;
17955;SDS011;27666;51.498;11.966;2024-01-06T15:16:02;51.33;;;19.90;;
17955;SDS011;27666;51.498;11.966;2024-01-06T15:18:48;43.10;;;18.60;;
17955;SDS011;27666;51.498;11.966;2024-01-06T15:21:36;40.33;;;16.67;;
17955;SDS011;27666;51.498;11.966;2024-01-06T15:24:22;36.30;;;17.00;;
17955;SDS011;27666;51.498;11.966;2024-01-06T15:27:09;40.93;;;17.97;;
17955;SDS011;27666;51.498;11.966;2024-01-06T15:29:58;32.77;;;16.13;;
17955;SDS011;27666;51.498;11.966;2024-01-06T15:32:46;42.40;;;16.70;;
17955;SDS011;27666;51.498;11.966;2024-01-06T15:35:34;41.63;;;17.63;;
17955;SDS011;27666;51.498;11.966;2024-01-06T15:38:21;42.70;;;17.93;;
17955;SDS011;27666;51.498;11.966;2024-01-06T15:41:07;38.63;;;16.67;;
17955;SDS011;27666;51.498;11.966;2024-01-06T15:43:55;38.50;;;17.73;;
17955;SDS011;27666;51.498;11.966;2024-01-06T15:46:43;36.70;;;16.17;;
17955;SDS011;27666;51.498;11.966;2024-01-06T15:49:30;33.63;;;14.40;;
17955;SDS011;27666;51.498;11.966;2024-01-06T15:52:17;41.00;;;15.93;;
17955;SDS011;27666;51.498;11.966;2024-01-06T15:55:07;36.43;;;15.90;;
17955;SDS011;27666;51.498;11.966;2024-01-06T15:57:54;40.87;;;18.67;;
17955;SDS011;27666;51.498;11.966;2024-01-06T16:00:41;40.70;;;17.33;;
17955;SDS011;27666;51.498;11.966;2024-01-06T16:03:29;42.30;;;18.40;;
17955;SDS011;27666;51.498;11.966;2024-01-06T16:06:16;42.90;;;17.37;;
17955;SDS011;27666;51.498;11.966;2024-01-06T16:09:02;43.87;;;18.83;;
17955;SDS011;27666;51.498;11.966;2024-01-06T16:11:50;45.93;;;18.17;;
17955;SDS011;27666;51.498;11.966;2024-01-06T16:14:37;44.80;;;18.10;;
17955;SDS011;27666;51.498;11.966;2024-01-06T16:17:23;59.53;;;21.17;;
17955;SDS011;27666;51.498;11.966;2024-01-06T16:20:11;55.23;;;21.23;;
17955;SDS011;27666;51.498;11.966;2024-01-06T16:22:58;53.03;;;20.87;;
17955;SDS011;27666;51.498;11.966;2024-01-06T16:25:45;55.80;;;21.07;;
17955;SDS011;27666;51.498;11.966;2024-01-06T16:28:31;53.07;;;21.27;;
17955;SDS011;27666;51.498;11.966;2024-01-06T16:31:18;56.80;;;22.37;;
17955;SDS011;27666;51.498;11.966;2024-01-06T16:34:10;54.77;;;23.37;;
17955;SDS011;27666;51.498;11.966;2024-01-06T16:36:58;60.50;;;24.13;;
17955;SDS011;27666;51.498;11.966;2024-01-06T16:39:44;70.10;;;25.77;;
17955;SDS011;27666;51.498;11.966;2024-01-06T16:42:30;62.17;;;24.57;;
17955;SDS011;27666;51.498;11.966;2024-01-06T16:45:17;60.13;;;23.17;;
17955;SDS011;27666;51.498;11.966;2024-01-06T16:48:04;66.43;;;23.43;;
17955;SDS011;27666;51.498;11.966;2024-01-06T16:50:52;56.93;;;22.90;;
17955;SDS011;27666;51.498;11.966;2024-01-06T16:53:40;64.40;;;24.60;;
17955;SDS011;27666;51.498;11.966;2024-01-06T16:56:27;67.70;;;24.83;;
17955;SDS011;27666;51.498;11.966;2024-01-06T16:59:13;69.13;;;25.20;;
17955;SDS011;27666;51.498;11.966;2024-01-06T17:02:00;74.30;;;24.10;;
17955;SDS011;27666;51.498;11.966;2024-01-06T17:04:47;67.67;;;24.17;;
17955;SDS011;27666;51.498;11.966;2024-01-06T17:07:35;73.53;;;25.23;;
17955;SDS011;27666;51.498;11.966;2024-01-06T17:10:23;65.97;;;25.40;;
17955;SDS011;27666;51.498;11.966;2024-01-06T17:13:09;68.37;;;24.43;;
17955;SDS011;27666;51.498;11.966;2024-01-06T17:15:56;72.87;;;25.73;;
17955;SDS011;27666;51.498;11.966;2024-01-06T17:18:42;66.33;;;23.63;;
17955;SDS011;27666;51.498;11.966;2024-01-06T17:21:29;60.43;;;23.47;;
17955;SDS011;27666;51.498;11.966;2024-01-06T17:24:16;64.10;;;25.90;;
17955;SDS011;27666;51.498;11.966;2024-01-06T17:27:04;65.40;;;22.80;;
17955;SDS011;27666;51.498;11.966;2024-01-06T17:29:51;71.33;;;23.40;;
17955;SDS011;27666;51.498;11.966;2024-01-06T17:32:37;69.40;;;23.20;;
17955;SDS011;27666;51.498;11.966;2024-01-06T17:35:24;64.20;;;23.57;;
17955;SDS011;27666;51.498;11.966;2024-01-06T17:38:11;62.40;;;24.07;;
17955;SDS011;27666;51.498;11.966;2024-01-06T17:40:57;62.33;;;23.97;;
17955;SDS011;27666;51.498;11.966;2024-01-06T17:43:45;67.67;;;24.13;;
17955;SDS011;27666;51.498;11.966;2024-01-06T17:46:32;66.10;;;23.23;;
17955;SDS011;27666;51.498;11.966;2024-01-06T17:49:19;66.30;;;23.57;;
17955;SDS011;27666;51.498;11.966;2024-01-06T17:52:06;57.67;;;23.57;;
17955;SDS011;27666;51.498;11.966;2024-01-06T17:54:56;69.07;;;24.40;;
17955;SDS011;27666;51.498;11.966;2024-01-06T17:57:42;63.47;;;24.30;;
17955;SDS011;27666;51.498;11.966;2024-01-06T18:00:30;68.90;;;25.27;;
17955;SDS011;27666;51.498;11.966;2024-01-06T18:03:17;65.63;;;24.70;;
17955;SDS011;27666;51.498;11.966;2024-01-06T18:06:04;65.93;;;24.17;;
17955;SDS011;27666;51.498;11.966;2024-01-06T18:08:51;66.03;;;22.23;;
17955;SDS011;27666;51.498;11.966;2024-01-06T18:11:37;62.10;;;23.57;;
17955;SDS011;27666;51.498;11.966;2024-01-06T18:14:26;57.90;;;22.67;;
17955;SDS011;27666;51.498;11.966;2024-01-06T18:17:21;57.63;;;22.50;;
17955;SDS011;27666;51.498;11.966;2024-01-06T18:20:08;57.40;;;20.67;;
17955;SDS011;27666;51.498;11.966;2024-01-06T18:22:55;57.97;;;22.27;;
17955;SDS011;27666;51.498;11.966;2024-01-06T18:25:43;60.10;;;20.43;;
17955;SDS011;27666;51.498;11.966;2024-01-06T18:28:30;55.93;;;21.77;;
17955;SDS011;27666;51.498;11.966;2024-01-06T18:31:17;52.47;;;22.60;;
17955;SDS011;27666;51.498;11.966;2024-01-06T18:34:05;61.97;;;23.57;;
17955;SDS011;27666;51.498;11.966;2024-01-06T18:36:52;55.80;;;22.33;;
17955;SDS011;27666;51.498;11.966;2024-01-06T18:39:39;64.20;;;24.03;;
17955;SDS011;27666;51.498;11.966;2024-01-06T18:42:26;64.83;;;24.67;;
17955;SDS011;27666;51.498;11.966;2024-01-06T18:45:13;65.73;;;23.80;;
17955;SDS011;27666;51.498;11.966;2024-01-06T18:48:00;71.50;;;24.77;;
17955;SDS011;27666;51.498;11.966;2024-01-06T18:50:47;64.37;;;23.70;;
17955;SDS011;27666;51.498;11.966;2024-01-06T18:53:34;61.17;;;24.93;;
17955;SDS011;27666;51.498;11.966;2024-01-06T18:56:24;64.93;;;23.33;;
17955;SDS011;27666;51.498;11.966;2024-01-06T18:59:12;62.63;;;24.33;;
17955;SDS011;27666;51.498;11.966;2024-01-06T19:01:58;72.03;;;23.13;;
17955;SDS011;27666;51.498;11.966;2024-01-06T19:04:45;64.80;;;21.20;;
17955;SDS011;27666;51.498;11.966;2024-01-06T19:07:33;64.57;;;22.43;;
17955;SDS011;27666;51.498;11.966;2024-01-06T19:10:20;65.40;;;21.93;;
17955;SDS011;27666;51.498;11.966;2024-01-06T19:13:07;64.40;;;20.87;;
17955;SDS011;27666;51.498;11.966;2024-01-06T19:15:54;66.17;;;23.23;;
17955;SDS011;27666;51.498;11.966;2024-01-06T19:18:41;70.67;;;23.10;;
17955;SDS011;27666;51.498;11.966;2024-01-06T19:21:27;68.47;;;23.87;;
17955;SDS011;27666;51.498;11.966;2024-01-06T19:24:16;75.07;;;24.17;;
17955;SDS011;27666;51.498;11.966;2024-01-06T19:27:16;60.50;;;22.50;;
17955;SDS011;27666;51.498;11.966;2024-01-06T19:30:03;68.27;;;23.87;;
17955;SDS011;27666;51.498;11.966;2024-01-06T19:32:50;74.53;;;23.97;;
17955;SDS011;27666;51.498;11.966;2024-01-06T19:35:37;69.53;;;23.07;;
17955;SDS011;27666;51.498;11.966;2024-01-06T19:38:24;71.07;;;22.87;;
17955;SDS011;27666;51.498;11.966;2024-01-06T19:41:12;68.33;;;22.07;;
17955;SDS011;27666;51.498;11.966;2024-01-06T19:44:01;63.07;;;20.67;;
17955;SDS011;27666;51.498;11.966;2024-01-06T19:46:48;60.23;;;20.50;;
17955;SDS011;27666;51.498;11.966;2024-01-06T19:49:34;59.03;;;22.53;;
17955;SDS011;27666;51.498;11.966;2024-01-06T19:52:21;65.00;;;22.37;;
17955;SDS011;27666;51.498;11.966;2024-01-06T19:55:07;56.20;;;21.27;;
17955;SDS011;27666;51.498;11.966;2024-01-06T19:57:56;56.40;;;21.90;;
17955;SDS011;27666;51.498;11.966;2024-01-06T20:00:43;61.50;;;21.33;;
17955;SDS011;27666;51.498;11.966;2024-01-06T20:03:30;55.67;;;20.13;;
17955;SDS011;27666;51.498;11.966;2024-01-06T20:06:16;50.87;;;20.50;;
17955;SDS011;27666;51.498;11.966;2024-01-06T20:09:04;58.70;;;20.17;;
17955;SDS011;27666;51.498;11.966;2024-01-06T20:11:52;58.10;;;21.23;;
17955;SDS011;27666;51.498;11.966;2024-01-06T20:14:39;48.77;;;19.40;;
17955;SDS011;27666;51.498;11.966;2024-01-06T20:17:26;54.13;;;19.77;;
17955;SDS011;27666;51.498;11.966;2024-01-06T20:20:13;54.13;;;20.67;;
17955;SDS011;27666;51.498;11.966;2024-01-06T20:23:00;49.83;;;19.23;;
17955;SDS011;27666;51.498;11.966;2024-01-06T20:25:46;53.10;;;20.00;;
17955;SDS011;27666;51.498;11.966;2024-01-06T20:28:33;47.40;;;19.60;;
17955;SDS011;27666;51.498;11.966;2024-01-06T20:31:20;47.37;;;20.00;;
17955;SDS011;27666;51.498;11.966;2024-01-06T20:34:08;51.30;;;20.63;;
17955;SDS011;27666;51.498;11.966;2024-01-06T20:36:55;48.87;;;19.60;;
17955;SDS011;27666;51.498;11.966;2024-01-06T20:39:42;59.63;;;20.27;;
17955;SDS011;27666;51.498;11.966;2024-01-06T20:42:29;50.37;;;20.80;;
17955;SDS011;27666;51.498;11.966;2024-01-06T20:45:15;48.87;;;18.73;;
17955;SDS011;27666;51.498;11.966;2024-01-06T20:48:06;48.03;;;19.23;;
17955;SDS011;27666;51.498;11.966;2024-01-06T20:50:53;43.67;;;18.80;;
17955;SDS011;27666;51.498;11.966;2024-01-06T20:53:40;50.93;;;21.03;;
17955;SDS011;27666;51.498;11.966;2024-01-06T20:56:27;46.90;;;18.77;;
17955;SDS011;27666;51.498;11.966;2024-01-06T20:59:13;46.00;;;19.20;;
17955;SDS011;27666;51.498;11.966;2024-01-06T21:02:00;44.10;;;18.83;;
17955;SDS011;27666;51.498;11.966;2024-01-06T21:04:48;42.97;;;19.07;;
17955;SDS011;27666;51.498;11.966;2024-01-06T21:07:35;45.83;;;18.43;;
17955;SDS011;27666;51.498;11.966;2024-01-06T21:10:26;41.63;;;17.67;;
17955;SDS011;27666;51.498;11.966;2024-01-06T21:13:12;48.67;;;20.93;;
17955;SDS011;27666;51.498;11.966;2024-01-06T21:16:00;48.13;;;19.30;;
17955;SDS011;27666;51.498;11.966;2024-01-06T21:18:47;43.77;;;18.63;;
17955;SDS011;27666;51.498;11.966;2024-01-06T21:21:36;40.57;;;19.23;;
17955;SDS011;27666;51.498;11.966;2024-01-06T21:24:26;46.00;;;18.50;;
17955;SDS011;27666;51.498;11.966;2024-01-06T21:27:12;37.30;;;17.37;;
17955;SDS011;27666;51.498;11.966;2024-01-06T21:29:59;40.07;;;18.00;;
17955;SDS011;27666;51.498;11.966;2024-01-06T21:32:49;39.63;;;18.37;;
17955;SDS011;27666;51.498;11.966;2024-01-06T21:35:36;38.70;;;18.27;;
17955;SDS011;27666;51.498;11.966;2024-01-06T21:38:24;41.97;;;19.13;;
17955;SDS011;27666;51.498;11.966;2024-01-06T21:41:11;47.43;;;19.40;;
17955;SDS011;27666;51.498;11.966;2024-01-06T21:43:57;48.90;;;19.87;;
17955;SDS011;27666;51.498;11.966;2024-01-06T21:46:44;56.53;;;20.33;;
17955;SDS011;27666;51.498;11.966;2024-01-06T21:49:31;49.83;;;19.60;;
17955;SDS011;27666;51.498;11.966;2024-01-06T21:52:18;53.83;;;20.10;;
17955;SDS011;27666;51.498;11.966;2024-01-06T21:55:07;54.27;;;20.83;;
17955;SDS011;27666;51.498;11.966;2024-01-06T21:57:55;49.77;;;20.50;;
17955;SDS011;27666;51.498;11.966;2024-01-06T22:00:42;60.67;;;22.03;;
17955;SDS011;27666;51.498;11.966;2024-01-06T22:03:29;56.43;;;21.30;;
17955;SDS011;27666;51.498;11.966;2024-01-06T22:06:16;53.27;;;22.90;;
17955;SDS011;27666;51.498;11.966;2024-01-06T22:09:02;52.30;;;21.87;;
17955;SDS011;27666;51.498;11.966;2024-01-06T22:11:58;47.93;;;20.57;;
17955;SDS011;27666;51.498;11.966;2024-01-06T22:14:44;49.47;;;21.33;;
17955;SDS011;27666;51.498;11.966;2024-01-06T22:17:31;57.50;;;21.87;;
17955;SDS011;27666;51.498;11.966;2024-01-06T22:20:17;50.20;;;20.63;;
17955;SDS011;27666;51.498;11.966;2024-01-06T22:23:04;53.97;;;21.17;;
17955;SDS011;27666;51.498;11.966;2024-01-06T22:25:50;51.30;;;19.20;;
17955;SDS011;27666;51.498;11.966;2024-01-06T22:28:38;45.77;;;20.67;;
17955;SDS011;27666;51.498;11.966;2024-01-06T22:31:24;43.20;;;18.17;;
17955;SDS011;27666;51.498;11.966;2024-01-06T22:34:12;43.37;;;18.60;;
17955;SDS011;27666;51.498;11.966;2024-01-06T22:36:58;38.73;;;16.63;;
17955;SDS011;27666;51.498;11.966;2024-01-06T22:39:45;40.60;;;17.73;;
17955;SDS011;27666;51.498;11.966;2024-01-06T22:42:32;35.30;;;15.83;;
17955;SDS011;27666;51.498;11.966;2024-01-06T22:45:20;35.30;;;16.33;;
17955;SDS011;27666;51.498;11.966;2024-01-06T22:48:07;37.73;;;14.50;;
17955;SDS011;27666;51.498;11.966;2024-01-06T22:50:55;24.57;;;12.93;;
17955;SDS011;27666;51.498;11.966;2024-01-06T22:53:42;25.10;;;12.90;;
17955;SDS011;27666;51.498;11.966;2024-01-06T22:56:28;26.97;;;12.83;;
17955;SDS011;27666;51.498;11.966;2024-01-06T22:59:15;24.87;;;13.77;;
17955;SDS011;27666;51.498;11.966;2024-01-06T23:02:03;30.97;;;14.93;;
17955;SDS011;27666;51.498;11.966;2024-01-06T23:04:50;30.47;;;16.33;;
17955;SDS011;27666;51.498;11.966;2024-01-06T23:07:38;30.63;;;15.57;;
17955;SDS011;27666;51.498;11.966;2024-01-06T23:10:25;39.10;;;17.10;;
